Time;durP1;ratioP1;P1;durP2;ratioP2;P2;SDS_P1;SDS_P2;PMS_P1;PMS_P2;Temp;Humidity;BMP_temperature;BMP_pressure;BME280_temperature;BME280_humidity;BME280_pressure;Samples;Min_cycle;Max_cycle;Signal;HPM_P1;HPM_P2
2022/04/18 00:00:01;;;;;;;12.07;7.20;;;;;;;;;;5034864;28;20469;-72
2022/04/18 00:02:27;;;;;;;18.00;8.85;;;;;;;;;;5030412;28;20037;-72
2022/04/18 00:04:53;;;;;;;12.75;8.20;;;;;;;;;;5034532;28;20076;-71
2022/04/18 00:07:19;;;;;;;14.80;7.93;;;;;;;;;;5030374;28;20088;-71
2022/04/18 00:09:46;;;;;;;15.85;8.10;;;;;;;;;;5032854;28;20036;-72
2022/04/18 00:12:12;;;;;;;18.42;8.13;;;;;;;;;;5031510;28;20068;-72
2022/04/18 00:14:38;;;;;;;13.63;8.48;;;;;;;;;;5033299;28;20026;-72
2022/04/18 00:17:09;;;;;;;15.60;8.88;;;;;;;;;;5011585;28;20430;-72
2022/04/18 00:19:35;;;;;;;13.82;8.45;;;;;;;;;;5005496;28;20030;-71
2022/04/18 00:22:01;;;;;;;13.40;7.97;;;;;;;;;;5021017;28;20034;-72
2022/04/18 00:24:27;;;;;;;16.63;9.35;;;;;;;;;;5028251;28;20043;-72
2022/04/18 00:26:53;;;;;;;16.08;8.05;;;;;;;;;;5016434;28;20033;-72
2022/04/18 00:29:19;;;;;;;13.38;8.65;;;;;;;;;;5025866;28;20022;-71
2022/04/18 00:31:45;;;;;;;12.13;8.32;;;;;;;;;;5026744;28;20440;-71
2022/04/18 00:34:11;;;;;;;15.95;8.23;;;;;;;;;;5039884;28;20048;-71
2022/04/18 00:36:37;;;;;;;14.25;7.47;;;;;;;;;;5033185;28;20042;-71
2022/04/18 00:39:03;;;;;;;16.77;9.15;;;;;;;;;;5034145;28;20037;-71
2022/04/18 00:41:29;;;;;;;16.02;8.43;;;;;;;;;;5036682;28;20531;-71
2022/04/18 00:43:56;;;;;;;14.88;7.78;;;;;;;;;;5032424;28;20034;-71
2022/04/18 00:46:22;;;;;;;15.02;8.00;;;;;;;;;;5029542;28;20042;-72
2022/04/18 00:48:48;;;;;;;13.35;7.63;;;;;;;;;;5032440;28;20036;-72
2022/04/18 00:51:16;;;;;;;14.10;8.40;;;;;;;;;;5030651;28;20283;-72
2022/04/18 00:53:43;;;;;;;12.98;7.80;;;;;;;;;;5031185;28;20037;-71
2022/04/18 00:56:11;;;;;;;15.68;9.15;;;;;;;;;;5031630;28;20037;-71
2022/04/18 00:58:39;;;;;;;16.13;8.93;;;;;;;;;;5027334;28;20462;-71
2022/04/18 01:01:05;;;;;;;14.43;8.65;;;;;;;;;;5032910;28;20022;-71
2022/04/18 01:03:31;;;;;;;13.10;8.75;;;;;;;;;;5047357;28;20034;-71
2022/04/18 01:05:58;;;;;;;16.67;7.95;;;;;;;;;;5015122;28;20033;-71
2022/04/18 01:08:25;;;;;;;16.35;7.95;;;;;;;;;;5024288;28;20056;-72
2022/04/18 01:10:52;;;;;;;15.57;8.88;;;;;;;;;;5033222;28;20244;-72
2022/04/18 01:13:18;;;;;;;14.40;8.77;;;;;;;;;;5030164;28;20148;-72
2022/04/18 01:15:44;;;;;;;15.68;8.63;;;;;;;;;;5028337;28;20041;-71
2022/04/18 01:18:10;;;;;;;17.55;8.82;;;;;;;;;;5013472;28;20050;-71
2022/04/18 01:20:36;;;;;;;15.15;9.10;;;;;;;;;;5032235;28;20083;-71
2022/04/18 01:23:06;;;;;;;15.82;8.48;;;;;;;;;;5008037;28;20030;-71
2022/04/18 01:31:02;;;;;;;12.70;7.90;;;;;;;;;;5023933;28;20048;-71
2022/04/18 01:33:29;;;;;;;17.98;8.38;;;;;;;;;;5031963;28;20034;-71
2022/04/18 01:35:55;;;;;;;17.25;9.13;;;;;;;;;;5030881;28;20037;-71
2022/04/18 01:38:21;;;;;;;13.48;7.68;;;;;;;;;;5028766;28;20508;-71
2022/04/18 01:40:47;;;;;;;14.85;8.85;;;;;;;;;;5032340;28;20124;-71
2022/04/18 01:43:13;;;;;;;22.48;9.25;;;;;;;;;;5028793;28;20040;-71
2022/04/18 01:45:40;;;;;;;13.23;8.30;;;;;;;;;;5024703;28;20045;-71
2022/04/18 01:48:06;;;;;;;14.82;8.85;;;;;;;;;;5012112;28;20469;-71
2022/04/18 01:50:32;;;;;;;18.23;8.20;;;;;;;;;;5029574;28;20092;-71
2022/04/18 01:52:58;;;;;;;14.85;8.68;;;;;;;;;;5026703;28;20057;-71
2022/04/18 01:55:24;;;;;;;13.07;8.60;;;;;;;;;;5032545;28;20025;-71
2022/04/18 01:57:50;;;;;;;13.57;8.85;;;;;;;;;;5030837;28;20037;-71
2022/04/18 02:00:16;;;;;;;13.48;7.97;;;;;;;;;;5019321;28;20030;-71
2022/04/18 02:02:42;;;;;;;12.38;8.45;;;;;;;;;;5027946;28;20029;-72
2022/04/18 02:05:09;;;;;;;16.67;9.90;;;;;;;;;;5030047;28;20065;-72
2022/04/18 02:07:35;;;;;;;16.10;8.85;;;;;;;;;;5028638;28;20033;-72
2022/04/18 02:10:02;;;;;;;14.93;9.18;;;;;;;;;;5020972;28;20036;-71
2022/04/18 02:12:28;;;;;;;16.15;9.15;;;;;;;;;;5029867;28;20038;-71
2022/04/18 02:14:54;;;;;;;16.55;9.20;;;;;;;;;;5027168;28;20087;-72
2022/04/18 02:17:20;;;;;;;15.40;8.82;;;;;;;;;;5028547;28;20074;-72
2022/04/18 02:19:46;;;;;;;15.98;9.25;;;;;;;;;;5032319;28;20034;-72
2022/04/18 02:22:15;;;;;;;14.60;9.20;;;;;;;;;;5027595;28;20454;-72
2022/04/18 02:24:41;;;;;;;16.33;9.13;;;;;;;;;;5008879;28;20030;-72
2022/04/18 02:27:09;;;;;;;15.75;8.73;;;;;;;;;;5025821;28;20500;-72
2022/04/18 02:29:35;;;;;;;12.80;8.25;;;;;;;;;;5027201;28;20033;-72
2022/04/18 02:34:46;;;;;;;15.50;8.63;;;;;;;;;;5034553;28;20037;-72
2022/04/18 02:37:12;;;;;;;14.73;9.13;;;;;;;;;;5041267;28;20067;-72
2022/04/18 02:39:38;;;;;;;19.60;8.80;;;;;;;;;;5004875;28;20021;-72
2022/04/18 02:42:04;;;;;;;16.27;9.30;;;;;;;;;;5027536;28;20524;-72
2022/04/18 02:44:30;;;;;;;13.48;8.23;;;;;;;;;;5023413;28;20481;-71
2022/04/18 02:46:56;;;;;;;16.00;9.43;;;;;;;;;;5018510;28;20433;-71
2022/04/18 02:49:23;;;;;;;17.83;8.57;;;;;;;;;;5029515;28;20041;-71
2022/04/18 02:51:49;;;;;;;13.57;9.18;;;;;;;;;;5029259;28;20056;-71
2022/04/18 02:54:15;;;;;;;19.38;8.57;;;;;;;;;;5010344;28;20045;-71
2022/04/18 02:56:41;;;;;;;16.15;9.18;;;;;;;;;;5031060;28;20037;-71
2022/04/18 02:59:07;;;;;;;19.08;10.73;;;;;;;;;;4996346;28;20369;-71
2022/04/18 03:01:33;;;;;;;16.70;9.13;;;;;;;;;;5026833;28;20470;-71
2022/04/18 03:03:59;;;;;;;14.90;9.10;;;;;;;;;;5031198;28;20461;-71
2022/04/18 03:06:25;;;;;;;17.15;10.15;;;;;;;;;;5023670;28;20026;-71
2022/04/18 03:08:51;;;;;;;17.85;9.48;;;;;;;;;;5006303;28;20038;-71
2022/04/18 03:11:17;;;;;;;17.58;8.77;;;;;;;;;;5028697;28;20057;-71
2022/04/18 03:13:46;;;;;;;13.57;9.07;;;;;;;;;;5027715;28;20026;-71
2022/04/18 03:16:13;;;;;;;17.73;9.38;;;;;;;;;;5029822;28;20091;-71
2022/04/18 03:18:39;;;;;;;20.58;9.35;;;;;;;;;;5016021;28;20042;-71
2022/04/18 03:21:06;;;;;;;16.05;9.55;;;;;;;;;;5006486;28;20782;-71
2022/04/18 03:23:32;;;;;;;16.17;9.27;;;;;;;;;;5008926;28;20030;-71
2022/04/18 03:25:59;;;;;;;18.88;10.07;;;;;;;;;;5004563;28;20425;-71
2022/04/18 03:28:25;;;;;;;15.98;9.23;;;;;;;;;;5010876;28;20018;-71
2022/04/18 03:30:51;;;;;;;16.08;9.27;;;;;;;;;;4989429;28;20038;-71
2022/04/18 03:33:18;;;;;;;17.38;9.25;;;;;;;;;;5001501;28;20117;-71
2022/04/18 03:41:15;;;;;;;16.02;9.75;;;;;;;;;;5003178;28;20535;-71
2022/04/18 03:43:41;;;;;;;13.55;9.30;;;;;;;;;;5002463;28;20031;-72
2022/04/18 03:46:07;;;;;;;17.30;9.50;;;;;;;;;;5008562;28;20034;-72
2022/04/18 03:48:33;;;;;;;20.50;9.88;;;;;;;;;;5008713;28;20030;-71
2022/04/18 03:50:59;;;;;;;17.50;9.68;;;;;;;;;;5009834;28;20112;-71
2022/04/18 03:53:26;;;;;;;16.90;10.05;;;;;;;;;;4986804;28;20038;-71
2022/04/18 03:55:52;;;;;;;17.77;10.15;;;;;;;;;;5008053;28;20054;-70
2022/04/18 03:58:18;;;;;;;18.15;10.13;;;;;;;;;;5010761;28;20034;-71
2022/04/18 04:00:44;;;;;;;15.32;9.90;;;;;;;;;;5005908;28;20092;-72
2022/04/18 04:03:10;;;;;;;14.23;9.45;;;;;;;;;;4994506;28;20037;-72
2022/04/18 04:05:37;;;;;;;17.17;10.50;;;;;;;;;;5010170;28;20104;-71
2022/04/18 04:08:03;;;;;;;20.85;8.73;;;;;;;;;;5010781;28;20034;-71
2022/04/18 04:10:29;;;;;;;17.05;9.23;;;;;;;;;;5009156;28;20034;-71
2022/04/18 04:12:55;;;;;;;21.23;9.82;;;;;;;;;;5008086;28;20041;-71
2022/04/18 04:15:21;;;;;;;19.83;10.07;;;;;;;;;;5013730;28;20034;-71
2022/04/18 04:17:47;;;;;;;20.92;10.57;;;;;;;;;;5020568;28;20053;-71
2022/04/18 04:20:13;;;;;;;18.40;10.10;;;;;;;;;;5024782;28;20037;-71
2022/04/18 04:22:48;;;;;;;17.65;9.50;;;;;;;;;;5030009;28;20021;-71
2022/04/18 04:25:15;;;;;;;16.30;9.18;;;;;;;;;;5033947;28;20404;-71
2022/04/18 04:27:41;;;;;;;20.65;11.52;;;;;;;;;;5028915;28;20471;-71
2022/04/18 04:30:07;;;;;;;13.93;9.25;;;;;;;;;;5027190;28;20440;-71
2022/04/18 04:32:33;;;;;;;16.67;9.57;;;;;;;;;;5027324;28;20417;-71
2022/04/18 04:34:59;;;;;;;16.35;10.15;;;;;;;;;;5033587;28;20033;-71
2022/04/18 04:37:25;;;;;;;18.05;9.48;;;;;;;;;;5029308;28;20103;-71
2022/04/18 04:39:51;;;;;;;15.13;10.02;;;;;;;;;;5031210;28;20045;-71
2022/04/18 04:42:19;;;;;;;16.02;10.10;;;;;;;;;;5030831;28;20026;-71
2022/04/18 04:44:45;;;;;;;17.33;9.88;;;;;;;;;;5030860;28;20551;-71
2022/04/18 04:47:11;;;;;;;18.50;9.82;;;;;;;;;;5032251;28;20056;-71
2022/04/18 04:49:37;;;;;;;21.00;10.18;;;;;;;;;;5032038;28;20029;-71
2022/04/18 04:52:04;;;;;;;16.50;9.30;;;;;;;;;;5031927;28;20056;-71
2022/04/18 04:54:30;;;;;;;19.05;10.00;;;;;;;;;;5033508;28;20500;-71
2022/04/18 04:56:56;;;;;;;21.70;11.77;;;;;;;;;;5031734;28;20057;-71
2022/04/18 04:59:22;;;;;;;18.05;9.43;;;;;;;;;;4997448;28;20033;-71
2022/04/18 05:01:48;;;;;;;20.48;10.35;;;;;;;;;;5032652;28;20026;-71
2022/04/18 05:04:14;;;;;;;17.08;10.93;;;;;;;;;;5030449;28;20033;-70
2022/04/18 05:06:40;;;;;;;19.23;10.32;;;;;;;;;;5032113;28;20040;-71
2022/04/18 05:09:06;;;;;;;16.98;10.63;;;;;;;;;;5029914;28;20386;-71
2022/04/18 05:11:33;;;;;;;20.65;10.68;;;;;;;;;;5032765;28;20037;-71
2022/04/18 05:13:59;;;;;;;18.52;10.02;;;;;;;;;;5031866;28;20026;-71
2022/04/18 05:16:25;;;;;;;21.60;10.40;;;;;;;;;;5027811;28;20033;-71
2022/04/18 05:18:51;;;;;;;16.67;10.20;;;;;;;;;;5030915;28;20053;-70
2022/04/18 05:21:17;;;;;;;17.02;9.95;;;;;;;;;;5031249;28;20030;-70
2022/04/18 05:23:43;;;;;;;15.23;9.55;;;;;;;;;;5031165;28;20033;-70
2022/04/18 05:26:09;;;;;;;18.55;9.95;;;;;;;;;;5025771;28;20025;-70
2022/04/18 05:28:35;;;;;;;19.17;9.90;;;;;;;;;;5005514;28;20040;-70
2022/04/18 05:31:02;;;;;;;15.82;9.77;;;;;;;;;;5013234;28;20044;-70
2022/04/18 05:33:28;;;;;;;19.00;10.48;;;;;;;;;;5031014;28;20034;-70
2022/04/18 05:35:54;;;;;;;17.05;10.38;;;;;;;;;;5031931;28;20053;-71
2022/04/18 05:38:20;;;;;;;17.90;10.43;;;;;;;;;;5031286;28;20021;-71
2022/04/18 05:40:47;;;;;;;19.70;11.13;;;;;;;;;;5032717;28;20093;-71
2022/04/18 05:43:13;;;;;;;23.10;10.10;;;;;;;;;;5024636;28;20516;-72
2022/04/18 05:45:39;;;;;;;15.00;10.35;;;;;;;;;;5031356;28;20061;-71
2022/04/18 05:48:05;;;;;;;18.00;10.20;;;;;;;;;;5030476;28;20135;-71
2022/04/18 05:50:31;;;;;;;18.13;10.57;;;;;;;;;;5027766;28;20087;-71
2022/04/18 05:52:58;;;;;;;18.35;10.25;;;;;;;;;;5024699;28;20037;-71
2022/04/18 05:55:24;;;;;;;24.08;10.57;;;;;;;;;;5003075;28;20520;-70
2022/04/18 05:57:52;;;;;;;16.40;10.57;;;;;;;;;;5006799;28;20183;-71
2022/04/18 06:00:18;;;;;;;16.13;10.57;;;;;;;;;;5026353;28;20109;-71
2022/04/18 06:02:44;;;;;;;17.52;10.20;;;;;;;;;;5033220;28;20393;-71
2022/04/18 06:05:11;;;;;;;15.10;9.93;;;;;;;;;;5025219;28;20030;-74
2022/04/18 06:07:38;;;;;;;18.38;11.10;;;;;;;;;;5024691;28;20026;-73
2022/04/18 06:10:05;;;;;;;21.90;12.75;;;;;;;;;;5025368;28;20477;-72
2022/04/18 06:12:31;;;;;;;18.33;10.38;;;;;;;;;;5024280;28;20034;-71
2022/04/18 06:14:57;;;;;;;19.98;10.95;;;;;;;;;;5028974;28;20044;-72
2022/04/18 06:17:23;;;;;;;16.25;10.07;;;;;;;;;;5011712;28;20516;-72
2022/04/18 06:19:49;;;;;;;24.60;12.05;;;;;;;;;;5031199;28;20022;-73
2022/04/18 06:22:19;;;;;;;16.58;10.43;;;;;;;;;;5028497;28;20513;-72
2022/04/18 06:24:45;;;;;;;18.83;10.95;;;;;;;;;;5026034;28;20095;-72
2022/04/18 06:27:11;;;;;;;17.23;11.20;;;;;;;;;;5028615;28;20066;-72
2022/04/18 06:29:37;;;;;;;17.60;10.20;;;;;;;;;;4997631;28;20480;-72
2022/04/18 06:32:03;;;;;;;17.48;10.20;;;;;;;;;;5030143;28;20045;-72
2022/04/18 06:34:30;;;;;;;16.33;10.35;;;;;;;;;;5029738;28;20125;-72
2022/04/18 06:36:56;;;;;;;20.17;11.45;;;;;;;;;;5030553;28;20033;-73
2022/04/18 06:39:22;;;;;;;34.53;19.73;;;;;;;;;;5011114;28;20038;-73
2022/04/18 06:41:49;;;;;;;18.90;11.35;;;;;;;;;;5027694;28;20038;-72
2022/04/18 06:44:15;;;;;;;17.38;10.35;;;;;;;;;;5016916;28;20045;-73
2022/04/18 06:46:41;;;;;;;19.23;10.77;;;;;;;;;;5021869;28;20076;-73
2022/04/18 06:49:07;;;;;;;18.15;10.35;;;;;;;;;;5030447;28;20488;-72
2022/04/18 06:51:33;;;;;;;14.15;9.90;;;;;;;;;;5024664;28;20093;-73
2022/04/18 06:54:00;;;;;;;11.98;8.27;;;;;;;;;;5029185;28;20096;-73
2022/04/18 06:59:11;;;;;;;16.33;10.32;;;;;;;;;;5023656;28;20045;-73
2022/04/18 07:01:37;;;;;;;27.88;16.27;;;;;;;;;;5025859;28;20089;-73
2022/04/18 07:04:03;;;;;;;13.73;9.65;;;;;;;;;;5031106;28;20026;-73
2022/04/18 07:06:29;;;;;;;14.80;8.73;;;;;;;;;;5026704;28;20144;-74
2022/04/18 07:08:56;;;;;;;13.10;8.05;;;;;;;;;;5030503;28;20065;-74
2022/04/18 07:11:22;;;;;;;10.80;7.57;;;;;;;;;;5024902;28;20045;-74
2022/04/18 07:13:48;;;;;;;11.60;8.15;;;;;;;;;;5020240;28;20026;-74
2022/04/18 07:16:14;;;;;;;14.02;9.27;;;;;;;;;;5024173;28;20049;-74
2022/04/18 07:18:40;;;;;;;13.15;7.70;;;;;;;;;;5021961;28;20054;-74
2022/04/18 07:21:06;;;;;;;19.73;7.68;;;;;;;;;;5024431;28;20486;-74
2022/04/18 07:23:32;;;;;;;11.30;6.85;;;;;;;;;;5019942;28;20456;-74
2022/04/18 07:25:58;;;;;;;10.63;7.32;;;;;;;;;;5033192;28;20400;-74
2022/04/18 07:28:24;;;;;;;11.65;7.32;;;;;;;;;;5025252;28;20115;-74
2022/04/18 07:30:50;;;;;;;10.30;6.75;;;;;;;;;;5029002;28;20037;-73
2022/04/18 07:33:16;;;;;;;12.73;7.47;;;;;;;;;;5007996;28;20092;-73
2022/04/18 07:35:43;;;;;;;11.13;7.43;;;;;;;;;;5023275;28;20109;-73
2022/04/18 07:40:54;;;;;;;10.40;6.82;;;;;;;;;;5033467;28;20153;-73
2022/04/18 07:43:21;;;;;;;9.90;6.85;;;;;;;;;;5025168;28;20025;-72
2022/04/18 07:45:47;;;;;;;8.82;6.82;;;;;;;;;;5026223;28;20045;-72
2022/04/18 07:48:13;;;;;;;19.00;10.55;;;;;;;;;;5022604;28;23954;-72
2022/04/18 07:53:24;;;;;;;12.88;6.95;;;;;;;;;;5040638;28;20100;-74
2022/04/18 07:55:51;;;;;;;10.57;6.70;;;;;;;;;;5013996;28;20032;-78
2022/04/18 07:58:17;;;;;;;9.88;6.75;;;;;;;;;;5034344;28;20037;-74
2022/04/18 08:00:43;;;;;;;10.73;7.35;;;;;;;;;;5032811;28;20057;-72
2022/04/18 08:03:09;;;;;;;11.05;7.25;;;;;;;;;;5014530;28;20043;-73
2022/04/18 08:05:35;;;;;;;9.95;6.72;;;;;;;;;;5013813;28;20034;-73
2022/04/18 08:08:01;;;;;;;11.07;6.85;;;;;;;;;;5026192;28;20502;-72
2022/04/18 08:10:28;;;;;;;12.23;7.72;;;;;;;;;;5023202;28;20109;-74
2022/04/18 08:12:55;;;;;;;11.90;6.97;;;;;;;;;;5030079;28;20400;-74
2022/04/18 08:15:21;;;;;;;12.52;6.53;;;;;;;;;;5030086;28;20508;-74
2022/04/18 08:17:47;;;;;;;11.90;6.43;;;;;;;;;;5024146;28;20596;-74
2022/04/18 08:20:13;;;;;;;9.57;6.22;;;;;;;;;;5032534;28;20030;-73
2022/04/18 08:22:39;;;;;;;10.07;6.95;;;;;;;;;;5032865;28;20042;-73
2022/04/18 08:25:06;;;;;;;9.93;6.20;;;;;;;;;;5017854;28;20036;-73
2022/04/18 08:27:32;;;;;;;8.77;6.60;;;;;;;;;;5030914;28;20076;-73
2022/04/18 08:29:58;;;;;;;8.20;5.85;;;;;;;;;;5029639;28;20470;-73
2022/04/18 08:32:24;;;;;;;13.60;6.53;;;;;;;;;;5041897;28;20424;-73
2022/04/18 08:34:50;;;;;;;12.43;6.60;;;;;;;;;;5033566;28;20496;-73
2022/04/18 08:37:16;;;;;;;9.48;6.70;;;;;;;;;;5033168;28;20068;-73
2022/04/18 08:39:42;;;;;;;10.80;6.63;;;;;;;;;;5031330;28;20048;-73
2022/04/18 08:42:08;;;;;;;9.35;5.65;;;;;;;;;;5032760;28;20393;-73
2022/04/18 08:44:35;;;;;;;9.50;6.38;;;;;;;;;;5013581;28;20486;-73
2022/04/18 08:47:01;;;;;;;12.52;6.00;;;;;;;;;;5039248;28;20596;-73
2022/04/18 08:54:58;;;;;;;6.60;5.13;;;;;;;;;;5032918;28;20113;-73
2022/04/18 08:57:25;;;;;;;9.15;5.80;;;;;;;;;;5030619;28;20052;-73
2022/04/18 08:59:51;;;;;;;9.45;5.70;;;;;;;;;;5014202;28;20034;-73
2022/04/18 09:02:17;;;;;;;7.80;5.40;;;;;;;;;;5035071;28;20112;-73
2022/04/18 09:04:44;;;;;;;11.45;5.47;;;;;;;;;;5014581;28;20068;-73
2022/04/18 09:07:13;;;;;;;9.40;5.47;;;;;;;;;;5033522;28;20029;-73
2022/04/18 09:09:40;;;;;;;9.18;5.45;;;;;;;;;;5027623;28;20029;-73
2022/04/18 09:12:18;;;;;;;9.35;6.10;;;;;;;;;;5027853;28;20030;-73
2022/04/18 09:14:48;;;;;;;7.50;4.88;;;;;;;;;;5030407;28;20112;-74
2022/04/18 09:17:27;;;;;;;10.05;5.93;;;;;;;;;;5037656;28;20539;-74
2022/04/18 09:20:05;;;;;;;9.38;5.85;;;;;;;;;;5028410;28;20030;-73
2022/04/18 09:22:31;;;;;;;10.30;5.53;;;;;;;;;;5024412;28;20026;-74
2022/04/18 09:24:57;;;;;;;7.25;4.93;;;;;;;;;;5035434;28;20156;-73
2022/04/18 09:27:29;;;;;;;8.50;5.38;;;;;;;;;;5032421;28;20033;-74
2022/04/18 09:30:05;;;;;;;7.78;5.55;;;;;;;;;;5032771;28;20028;-74
2022/04/18 09:32:31;;;;;;;9.10;5.78;;;;;;;;;;5029532;28;20048;-74
2022/04/18 09:35:01;;;;;;;8.63;5.10;;;;;;;;;;5031677;28;20029;-73
2022/04/18 09:37:31;;;;;;;8.55;5.00;;;;;;;;;;5032612;28;20041;-74
2022/04/18 09:39:57;;;;;;;8.73;5.10;;;;;;;;;;5032351;28;20025;-74
2022/04/18 09:42:25;;;;;;;8.88;4.85;;;;;;;;;;5031142;28;20117;-74
2022/04/18 09:44:51;;;;;;;7.68;5.68;;;;;;;;;;5030347;28;20026;-73
2022/04/18 09:47:18;;;;;;;9.25;5.20;;;;;;;;;;5031154;28;20056;-73
2022/04/18 09:49:44;;;;;;;6.93;4.80;;;;;;;;;;5030706;28;20037;-74
2022/04/18 09:52:12;;;;;;;5.43;4.78;;;;;;;;;;5027246;28;20030;-74
2022/04/18 09:54:44;;;;;;;6.05;3.55;;;;;;;;;;5017761;28;20424;-73
2022/04/18 09:57:10;;;;;;;8.43;3.90;;;;;;;;;;5020722;28;20038;-73
2022/04/18 09:59:37;;;;;;;5.50;4.15;;;;;;;;;;5028946;28;20029;-73
2022/04/18 10:02:04;;;;;;;7.53;4.40;;;;;;;;;;5030406;28;20028;-74
2022/04/18 10:04:30;;;;;;;5.13;4.47;;;;;;;;;;5024079;28;20029;-74
2022/04/18 10:06:57;;;;;;;8.27;4.93;;;;;;;;;;5022949;28;20473;-74
2022/04/18 10:09:24;;;;;;;5.30;3.17;;;;;;;;;;5024226;28;20064;-75
2022/04/18 10:11:52;;;;;;;5.70;3.53;;;;;;;;;;5022716;28;20024;-74
2022/04/18 10:14:18;;;;;;;7.93;4.05;;;;;;;;;;5028945;28;20524;-74
2022/04/18 10:16:45;;;;;;;6.18;4.13;;;;;;;;;;5036475;28;20132;-74
2022/04/18 10:19:21;;;;;;;6.13;3.60;;;;;;;;;;5033382;28;20465;-74
2022/04/18 10:21:52;;;;;;;4.45;2.95;;;;;;;;;;5043049;28;20025;-74
2022/04/18 10:24:18;;;;;;;3.90;2.63;;;;;;;;;;5007597;28;20037;-74
2022/04/18 10:27:04;;;;;;;4.25;3.00;;;;;;;;;;5024146;28;20048;-74
2022/04/18 10:29:37;;;;;;;4.25;3.65;;;;;;;;;;5029362;28;20417;-73
2022/04/18 10:32:03;;;;;;;3.95;2.85;;;;;;;;;;5026131;28;20095;-74
2022/04/18 10:34:33;;;;;;;5.35;2.55;;;;;;;;;;5029143;28;20030;-73
2022/04/18 10:37:01;;;;;;;11.63;7.80;;;;;;;;;;5027168;28;20097;-75
2022/04/18 10:39:34;;;;;;;7.28;3.40;;;;;;;;;;5015674;28;20041;-75
2022/04/18 10:42:17;;;;;;;3.88;2.70;;;;;;;;;;5021706;28;20030;-75
2022/04/18 10:44:43;;;;;;;4.03;2.90;;;;;;;;;;5023508;28;20037;-73
2022/04/18 10:47:10;;;;;;;3.53;2.42;;;;;;;;;;5038034;28;20115;-73
2022/04/18 10:49:36;;;;;;;3.17;2.40;;;;;;;;;;5032455;28;20105;-73
2022/04/18 10:52:08;;;;;;;5.53;2.42;;;;;;;;;;5027474;28;20040;-73
2022/04/18 10:54:35;;;;;;;3.30;1.88;;;;;;;;;;5027587;28;20380;-73
2022/04/18 10:57:01;;;;;;;3.55;2.08;;;;;;;;;;5026141;28;20033;-73
2022/04/18 10:59:31;;;;;;;4.43;2.50;;;;;;;;;;5030007;28;20037;-73
2022/04/18 11:01:59;;;;;;;5.88;4.05;;;;;;;;;;5011007;28;20029;-74
2022/04/18 11:04:26;;;;;;;4.70;3.08;;;;;;;;;;5027249;28;20025;-73
2022/04/18 11:06:58;;;;;;;6.10;2.35;;;;;;;;;;5005135;28;20121;-73
2022/04/18 11:09:24;;;;;;;5.47;3.20;;;;;;;;;;5030948;28;20056;-73
2022/04/18 11:12:14;;;;;;;4.05;2.25;;;;;;;;;;5026835;28;20021;-73
2022/04/18 11:14:47;;;;;;;3.38;2.47;;;;;;;;;;5022222;28;20678;-71
2022/04/18 11:17:14;;;;;;;5.10;2.50;;;;;;;;;;5040165;28;20040;-71
2022/04/18 11:19:41;;;;;;;5.82;2.65;;;;;;;;;;5050446;28;20496;-72
2022/04/18 11:22:07;;;;;;;2.83;2.10;;;;;;;;;;5049147;28;20021;-71
2022/04/18 11:24:51;;;;;;;4.70;2.60;;;;;;;;;;5030133;28;20405;-72
2022/04/18 11:27:19;;;;;;;6.20;2.72;;;;;;;;;;5029688;28;20030;-72
2022/04/18 11:29:46;;;;;;;4.07;2.80;;;;;;;;;;5032316;28;20056;-71
2022/04/18 11:32:16;;;;;;;7.03;2.95;;;;;;;;;;5016102;28;20378;-71
2022/04/18 11:34:49;;;;;;;4.57;2.80;;;;;;;;;;5023984;28;20049;-71
2022/04/18 11:37:22;;;;;;;5.05;2.47;;;;;;;;;;5031974;28;20384;-72
2022/04/18 11:39:49;;;;;;;3.53;2.33;;;;;;;;;;5035300;28;20108;-72
2022/04/18 11:42:20;;;;;;;4.28;2.58;;;;;;;;;;5029800;28;20037;-72
2022/04/18 11:44:48;;;;;;;3.25;2.42;;;;;;;;;;5032034;28;20393;-72
2022/04/18 11:47:21;;;;;;;3.85;2.28;;;;;;;;;;5037747;28;20123;-71
2022/04/18 11:49:49;;;;;;;3.38;2.15;;;;;;;;;;5035941;28;20037;-71
2022/04/18 11:52:20;;;;;;;4.72;2.15;;;;;;;;;;5033701;28;20025;-71
2022/04/18 11:55:05;;;;;;;2.67;2.17;;;;;;;;;;5033530;28;20029;-71
2022/04/18 11:57:33;;;;;;;3.53;2.28;;;;;;;;;;5028168;28;20092;-71
2022/04/18 11:59:59;;;;;;;4.00;2.28;;;;;;;;;;5031828;28;20087;-71
2022/04/18 12:08:02;;;;;;;2.63;1.80;;;;;;;;;;5034653;28;20045;-71
2022/04/18 12:10:31;;;;;;;5.40;2.08;;;;;;;;;;5033839;28;20030;-71
2022/04/18 12:12:57;;;;;;;3.38;2.53;;;;;;;;;;5028036;28;20080;-71
2022/04/18 12:15:25;;;;;;;4.82;2.40;;;;;;;;;;5032273;28;20030;-71
2022/04/18 12:17:51;;;;;;;4.82;2.80;;;;;;;;;;5016019;28;20083;-71
2022/04/18 12:20:21;;;;;;;2.55;1.92;;;;;;;;;;5029489;28;20029;-71
2022/04/18 12:22:58;;;;;;;4.82;1.90;;;;;;;;;;5033124;28;20099;-73
2022/04/18 12:25:28;;;;;;;2.63;1.75;;;;;;;;;;5034194;28;20369;-73
2022/04/18 12:27:54;;;;;;;2.90;2.00;;;;;;;;;;5032632;28;20108;-73
2022/04/18 12:30:20;;;;;;;3.22;1.73;;;;;;;;;;5023384;28;20025;-72
2022/04/18 12:32:49;;;;;;;3.47;2.33;;;;;;;;;;5014109;28;20113;-72
2022/04/18 12:35:16;;;;;;;4.35;2.20;;;;;;;;;;5016213;28;20448;-73
2022/04/18 12:37:49;;;;;;;3.63;2.13;;;;;;;;;;5031627;28;20025;-73
2022/04/18 12:40:16;;;;;;;3.30;2.25;;;;;;;;;;5033415;28;20128;-71
2022/04/18 12:42:50;;;;;;;5.03;2.10;;;;;;;;;;4986777;28;20436;-71
2022/04/18 12:45:16;;;;;;;3.00;1.98;;;;;;;;;;5027329;28;20033;-71
2022/04/18 12:47:42;;;;;;;2.33;1.80;;;;;;;;;;5008207;28;20037;-71
2022/04/18 12:50:14;;;;;;;9.20;5.93;;;;;;;;;;5023559;28;20128;-71
2022/04/18 12:52:47;;;;;;;2.95;2.20;;;;;;;;;;5030851;28;20126;-71
2022/04/18 12:55:13;;;;;;;3.80;2.45;;;;;;;;;;5039210;28;20102;-71
2022/04/18 12:57:39;;;;;;;3.97;2.25;;;;;;;;;;5025341;28;20034;-72
2022/04/18 13:00:14;;;;;;;2.55;2.15;;;;;;;;;;5019845;28;20077;-72
2022/04/18 13:02:40;;;;;;;4.20;2.47;;;;;;;;;;5027767;28;20060;-73
2022/04/18 13:05:07;;;;;;;4.57;2.38;;;;;;;;;;5018908;28;20041;-73
2022/04/18 13:07:40;;;;;;;5.05;1.90;;;;;;;;;;5015819;28;20041;-73
2022/04/18 13:10:07;;;;;;;2.17;1.70;;;;;;;;;;5014820;28;20026;-73
2022/04/18 13:12:33;;;;;;;7.30;1.98;;;;;;;;;;5021501;28;20037;-73
2022/04/18 13:15:05;;;;;;;3.17;1.90;;;;;;;;;;5031910;28;20105;-73
2022/04/18 13:17:33;;;;;;;2.15;1.58;;;;;;;;;;5025310;28;20084;-73
2022/04/18 13:20:00;;;;;;;3.17;1.63;;;;;;;;;;5030557;28;20033;-72
2022/04/18 13:22:26;;;;;;;3.92;1.90;;;;;;;;;;5032203;28;20075;-73
2022/04/18 13:24:53;;;;;;;2.65;1.98;;;;;;;;;;5032648;28;20072;-73
2022/04/18 13:27:26;;;;;;;7.57;2.58;;;;;;;;;;5039964;28;20025;-73
2022/04/18 13:29:52;;;;;;;2.47;1.88;;;;;;;;;;5029938;28;20030;-72
2022/04/18 13:32:18;;;;;;;3.78;2.20;;;;;;;;;;5030680;28;20112;-75
2022/04/18 13:34:44;;;;;;;5.30;1.60;;;;;;;;;;5009517;28;20025;-73
2022/04/18 13:37:11;;;;;;;4.13;1.70;;;;;;;;;;5022765;28;20141;-73
2022/04/18 13:39:46;;;;;;;3.28;1.38;;;;;;;;;;5031793;28;20030;-72
2022/04/18 13:42:12;;;;;;;2.45;1.40;;;;;;;;;;5016909;28;20041;-73
2022/04/18 13:44:38;;;;;;;2.63;1.20;;;;;;;;;;5031736;28;20030;-73
2022/04/18 13:47:04;;;;;;;1.88;1.17;;;;;;;;;;5028386;28;20044;-72
2022/04/18 13:49:30;;;;;;;2.83;1.95;;;;;;;;;;5025244;28;20061;-72
2022/04/18 13:51:56;;;;;;;2.33;1.60;;;;;;;;;;5032594;28;20409;-72
2022/04/18 13:54:22;;;;;;;2.88;1.30;;;;;;;;;;5022689;28;20022;-72
2022/04/18 13:56:49;;;;;;;6.50;2.42;;;;;;;;;;5030980;28;20440;-72
2022/04/18 13:59:15;;;;;;;3.08;1.45;;;;;;;;;;5029231;28;20029;-72
2022/04/18 14:01:43;;;;;;;3.35;1.33;;;;;;;;;;5022833;28;20052;-72
2022/04/18 14:04:10;;;;;;;3.22;1.90;;;;;;;;;;5029455;28;20517;-72
2022/04/18 14:06:36;;;;;;;1.90;1.60;;;;;;;;;;5014776;28;20040;-71
2022/04/18 14:09:03;;;;;;;1.65;1.50;;;;;;;;;;5027424;28;20037;-72
2022/04/18 14:11:29;;;;;;;3.15;1.42;;;;;;;;;;5031381;28;20026;-71
2022/04/18 14:13:55;;;;;;;2.95;1.83;;;;;;;;;;5026147;28;20033;-74
2022/04/18 14:20:20;;;;;;;4.82;2.45;;;;;;;;;;5011632;28;20080;-74
2022/04/18 14:21:58;;;;;;;2.95;1.40;;;;;;;;;;5005537;28;20065;-75
2022/04/18 14:24:24;;;;;;;2.97;1.52;;;;;;;;;;5002448;28;20040;-76
2022/04/18 14:26:51;;;;;;;2.53;1.65;;;;;;;;;;5016469;28;20122;-75
2022/04/18 14:29:17;;;;;;;1.95;1.52;;;;;;;;;;5019510;28;20034;-75
2022/04/18 14:31:43;;;;;;;1.65;1.35;;;;;;;;;;4991051;28;20033;-75
2022/04/18 14:34:09;;;;;;;1.55;1.45;;;;;;;;;;5011365;28;20049;-75
2022/04/18 14:36:36;;;;;;;38.97;21.45;;;;;;;;;;4973931;28;20145;-75
2022/04/18 14:39:03;;;;;;;13.07;9.52;;;;;;;;;;4998254;28;20021;-75
2022/04/18 14:41:29;;;;;;;3.25;2.08;;;;;;;;;;5007222;28;20061;-78
2022/04/18 14:43:55;;;;;;;4.00;1.70;;;;;;;;;;5009278;28;20030;-80
2022/04/18 14:46:21;;;;;;;5.18;1.50;;;;;;;;;;5009916;28;20038;-83
2022/04/18 14:48:52;;;;;;;5.10;1.50;;;;;;;;;;5005205;28;20026;-78
2022/04/18 14:51:18;;;;;;;1.90;1.38;;;;;;;;;;5020166;28;20061;-78
2022/04/18 14:53:44;;;;;;;3.33;1.40;;;;;;;;;;5008133;28;20390;-78
2022/04/18 14:56:10;;;;;;;3.63;1.30;;;;;;;;;;5007330;28;20559;-78
2022/04/18 14:58:36;;;;;;;1.75;1.35;;;;;;;;;;5003963;28;20046;-78
2022/04/18 15:01:04;;;;;;;2.50;1.45;;;;;;;;;;4999922;28;20026;-78
2022/04/18 15:03:30;;;;;;;8.18;5.45;;;;;;;;;;5010188;28;20113;-77
2022/04/18 15:05:56;;;;;;;6.93;4.15;;;;;;;;;;4999920;28;20037;-78
2022/04/18 15:08:22;;;;;;;2.72;1.80;;;;;;;;;;5003255;28;20060;-78